createdAt,value
2022-08-11T00:02:26.379Z,98857.06
2022-08-11T00:05:27.856Z,98857.00
2022-08-11T00:08:30.509Z,98862.50
2022-08-11T00:11:39.327Z,98852.59
2022-08-11T00:14:40.829Z,98858.78
2022-08-11T00:17:42.337Z,98863.19
2022-08-11T00:20:44.159Z,98876.50
2022-08-11T00:23:47.001Z,98874.03
2022-08-11T00:26:52.265Z,98867.25
2022-08-11T00:29:54.419Z,98869.19
2022-08-11T00:32:56.513Z,98878.78
2022-08-11T00:35:58.484Z,98880.56
2022-08-11T00:39:04.015Z,98870.31
2022-08-11T00:42:24.314Z,98872.03
2022-08-11T00:45:52.402Z,98879.84
2022-08-11T00:49:11.967Z,98872.13
2022-08-11T00:52:41.421Z,98879.31
2022-08-11T00:56:01.318Z,98871.09
2022-08-11T00:59:35.384Z,98874.13
2022-08-11T01:03:14.950Z,98885.50
2022-08-11T01:06:38.184Z,98879.25
2022-08-11T01:09:57.301Z,98876.06
2022-08-11T01:13:19.061Z,98878.53
2022-08-11T01:16:50.244Z,98873.28
2022-08-11T01:20:44.694Z,98875.03
2022-08-11T01:23:56.018Z,98867.25
2022-08-11T01:27:21.778Z,98871.91
2022-08-11T01:30:43.810Z,98871.28
2022-08-11T01:34:13.264Z,98868.66
2022-08-11T01:37:30.908Z,98864.25
2022-08-11T01:40:57.296Z,98870.31
2022-08-11T01:44:36.199Z,98871.16
2022-08-11T01:47:53.368Z,98864.44
2022-08-11T01:51:22.918Z,98870.81
2022-08-11T01:54:26.843Z,98868.34
2022-08-11T01:57:34.270Z,98879.03
2022-08-11T02:00:51.018Z,98875.56
2022-08-11T02:04:01.456Z,98879.31
2022-08-11T02:07:14.440Z,98876.75
2022-08-11T02:10:50.736Z,98888.91
2022-08-11T02:14:22.321Z,98886.28
2022-08-11T02:18:10.431Z,98878.56
2022-08-11T02:21:30.727Z,98872.28
2022-08-11T02:24:37.894Z,98875.13
2022-08-11T02:27:56.056Z,98869.09
2022-08-11T02:32:24.422Z,98869.19
2022-08-11T02:35:17.054Z,98870.03
2022-08-11T02:38:22.092Z,98867.63
2022-08-11T02:41:55.134Z,98858.81
2022-08-11T02:44:59.563Z,98855.25
2022-08-11T02:48:55.022Z,98859.81
2022-08-11T02:52:14.619Z,98859.13
2022-08-11T02:55:55.747Z,98864.50
2022-08-11T02:59:12.180Z,98865.22
2022-08-11T03:02:31.408Z,98861.69
2022-08-11T03:06:14.513Z,98867.03
2022-08-11T03:09:27.894Z,98874.31
2022-08-11T03:12:53.706Z,98863.88
2022-08-11T03:16:37.370Z,98873.72
2022-08-11T03:19:53.284Z,98871.06
2022-08-11T03:23:24.568Z,98864.97
2022-08-11T03:26:38.681Z,98860.56
2022-08-11T03:29:45.124Z,98866.69
2022-08-11T03:33:34.318Z,98870.34
2022-08-11T03:37:33.510Z,98865.97
2022-08-11T03:41:50.037Z,98869.38
2022-08-11T03:44:52.049Z,98868.72
2022-08-11T03:48:00.629Z,98866.88
2022-08-11T03:51:23.687Z,98865.97
2022-08-11T03:54:56.291Z,98867.75
2022-08-11T03:58:26.646Z,98863.47
2022-08-11T04:01:38.315Z,98869.63
2022-08-11T04:05:14.931Z,98869.63
2022-08-11T04:08:34.115Z,98870.56
2022-08-11T04:11:42.172Z,98871.53
2022-08-11T04:15:26.709Z,98869.09
2022-08-11T04:19:05.385Z,98869.13
2022-08-11T04:22:23.161Z,98867.28
2022-08-11T04:25:58.043Z,98867.28
2022-08-11T04:29:15.178Z,98862.28
2022-08-11T04:32:38.554Z,98877.94
2022-08-11T04:35:52.734Z,98872.72
2022-08-11T04:38:58.991Z,98876.34
2022-08-11T04:42:31.878Z,98869.25
2022-08-11T04:46:05.693Z,98870.84
2022-08-11T04:50:03.431Z,98873.38
2022-08-11T04:53:41.187Z,98869.13
2022-08-11T04:57:02.315Z,98881.50
2022-08-11T05:00:31.676Z,98878.00
2022-08-11T05:04:40.010Z,98871.09
2022-08-11T05:08:23.841Z,98870.03
2022-08-11T05:12:02.297Z,98885.59
2022-08-11T05:15:22.893Z,98884.59
2022-08-11T05:18:43.050Z,98883.63
2022-08-11T05:22:06.598Z,98877.44
2022-08-11T05:26:45.212Z,98883.44
2022-08-11T05:29:20.234Z,98883.34
2022-08-11T05:32:40.986Z,98878.84
2022-08-11T05:36:02.317Z,98888.28
2022-08-11T05:39:33.964Z,98876.69
2022-08-11T05:43:09.328Z,98880.84
2022-08-11T05:46:29.329Z,98872.84
2022-08-11T05:49:50.449Z,98877.84
2022-08-11T05:53:11.969Z,98875.03
2022-08-11T05:56:19.873Z,98872.13
2022-08-11T05:59:21.936Z,98877.16
2022-08-11T06:02:23.599Z,98872.63
2022-08-11T06:05:25.325Z,98871.56
2022-08-11T06:08:30.746Z,98869.50
2022-08-11T06:11:43.705Z,98863.94
2022-08-11T06:14:46.249Z,98866.28
2022-08-11T06:17:47.957Z,98849.38
2022-08-11T06:20:55.002Z,98855.81
2022-08-11T06:23:56.486Z,98847.47
2022-08-11T06:27:13.933Z,98855.84
2022-08-11T06:30:15.575Z,98850.41
2022-08-11T06:33:20.400Z,98846.59
2022-08-11T06:36:35.390Z,98850.53
2022-08-11T06:39:47.370Z,98838.53
2022-08-11T06:42:55.378Z,98850.06
2022-08-11T06:46:07.935Z,98845.38
2022-08-11T06:49:30.505Z,98835.09
2022-08-11T06:52:34.828Z,98839.66
2022-08-11T06:55:59.014Z,98834.56
2022-08-11T06:59:19.819Z,98826.59
2022-08-11T07:02:39.357Z,98822.19
2022-08-11T07:05:45.225Z,98832.31
2022-08-11T07:09:33.363Z,98822.25
2022-08-11T07:12:57.835Z,98824.09
2022-08-11T07:16:12.599Z,98804.91
2022-08-11T07:19:35.490Z,98801.78
2022-08-11T07:22:55.723Z,98782.44
2022-08-11T07:26:15.847Z,98783.72
2022-08-11T07:29:17.376Z,98763.78
2022-08-11T07:32:29.975Z,98760.13
2022-08-11T07:35:34.010Z,98757.31
2022-08-11T07:38:47.495Z,98752.31
2022-08-11T07:41:50.162Z,98751.69
2022-08-11T07:45:10.274Z,98747.25
2022-08-11T07:48:30.199Z,98759.31
2022-08-11T07:51:50.280Z,98742.31
2022-08-11T07:54:51.740Z,98739.22
2022-08-11T07:58:16.934Z,98723.66
2022-08-11T08:01:42.505Z,98736.19
2022-08-11T08:05:02.501Z,98737.63
2022-08-11T08:08:23.249Z,98739.38
2022-08-11T08:11:43.371Z,98720.22
2022-08-11T08:15:03.514Z,98736.63
2022-08-11T08:18:08.949Z,98729.44
2022-08-11T08:21:27.136Z,98727.41
2022-08-11T08:24:28.722Z,98711.50
2022-08-11T08:27:30.244Z,98713.38
2022-08-11T08:30:49.542Z,98727.91
2022-08-11T08:33:51.009Z,98707.22
2022-08-11T08:36:52.513Z,98705.00
2022-08-11T08:39:54.806Z,98720.38
2022-08-11T08:42:57.388Z,98709.66
2022-08-11T08:45:59.174Z,98693.41
2022-08-11T08:49:01.660Z,98694.34
2022-08-11T08:52:30.623Z,98694.44
2022-08-11T08:55:26.462Z,98703.97
2022-08-11T08:58:28.028Z,98686.38
2022-08-11T09:01:31.119Z,98688.56
2022-08-11T09:04:32.796Z,98692.09
2022-08-11T09:07:39.380Z,98703.16
2022-08-11T09:10:42.001Z,98702.63
2022-08-11T09:13:44.370Z,98700.38
2022-08-11T09:16:45.973Z,98704.94
2022-08-11T09:19:54.115Z,98686.84
2022-08-11T09:26:58.502Z,98677.50
2022-08-11T09:30:00.080Z,98674.38
2022-08-11T09:33:01.976Z,98681.13
2022-08-11T09:36:23.656Z,98682.72
2022-08-11T09:39:43.812Z,98660.66
2022-08-11T09:43:03.965Z,98660.56
2022-08-11T09:46:06.133Z,98654.44
2022-08-11T09:49:07.618Z,98667.06
2022-08-11T09:52:09.604Z,98647.94
2022-08-11T09:55:11.399Z,98656.78
2022-08-11T09:58:42.053Z,98660.03
2022-08-11T10:01:47.291Z,98685.94
2022-08-11T10:04:49.016Z,98684.63
2022-08-11T10:07:52.373Z,98660.34
2022-08-11T10:10:53.949Z,98664.59
2022-08-11T10:14:32.662Z,98659.00
2022-08-11T10:17:36.249Z,98651.03
2022-08-11T10:20:37.978Z,98653.88
2022-08-11T10:24:00.813Z,98642.69
2022-08-11T10:27:08.382Z,98648.19
2022-08-11T10:30:31.297Z,98632.50
2022-08-11T10:33:59.001Z,98643.97
2022-08-11T10:37:04.149Z,98626.41
2022-08-11T10:40:06.116Z,98636.63
2022-08-11T10:43:10.546Z,98619.38
2022-08-11T10:46:30.930Z,98617.69
2022-08-11T10:49:32.426Z,98622.53
2022-08-11T10:52:53.447Z,98623.34
2022-08-11T10:56:13.522Z,98619.00
2022-08-11T10:59:15.545Z,98624.44
2022-08-11T11:02:17.180Z,98608.47
2022-08-11T11:05:27.193Z,98620.88
2022-08-11T11:12:13.410Z,98591.22
2022-08-11T11:15:33.412Z,98618.63
2022-08-11T11:18:36.612Z,98611.84
2022-08-11T11:21:38.768Z,98615.28
2022-08-11T11:25:05.774Z,98586.19
2022-08-11T11:28:14.225Z,98604.78
2022-08-11T11:31:24.621Z,98599.03
2022-08-11T11:35:00.200Z,98587.53
2022-08-11T11:38:05.040Z,98580.25
2022-08-11T11:41:26.522Z,98606.34
2022-08-11T11:44:28.035Z,98598.47
2022-08-11T11:47:30.261Z,98587.75
2022-08-11T11:50:34.764Z,98582.34
2022-08-11T11:53:36.258Z,98581.47
2022-08-11T11:56:37.757Z,98577.06
2022-08-11T11:59:57.944Z,98578.88
2022-08-11T12:03:00.489Z,98566.38
2022-08-11T12:06:02.673Z,98558.06
2022-08-11T12:09:04.191Z,98567.31
2022-08-11T12:12:24.363Z,98555.13
2022-08-11T12:16:04.425Z,98558.44
2022-08-11T12:18:48.096Z,98570.94
2022-08-11T12:22:13.767Z,98543.25
2022-08-11T12:25:33.794Z,98545.47
2022-08-11T12:28:35.280Z,98534.25
2022-08-11T12:31:38.065Z,98532.44
2022-08-11T12:34:39.549Z,98538.31
2022-08-11T12:37:43.642Z,98529.28
2022-08-11T12:41:19.382Z,98511.78
2022-08-11T12:44:39.930Z,98513.47
2022-08-11T12:48:40.124Z,98502.25
2022-08-11T12:52:10.997Z,98497.28
2022-08-11T12:55:12.533Z,98499.84
2022-08-11T12:58:17.766Z,98498.44
2022-08-11T13:01:37.938Z,98515.13
2022-08-11T13:04:59.107Z,98500.31
2022-08-11T13:08:01.713Z,98513.59
2022-08-11T13:11:21.816Z,98500.19
2022-08-11T13:14:23.389Z,98470.56
2022-08-11T13:17:43.562Z,98474.13
2022-08-11T13:20:45.825Z,98479.22
2022-08-11T13:24:00.291Z,98464.56
2022-08-11T13:27:04.407Z,98459.03
2022-08-11T13:30:24.908Z,98456.34
2022-08-11T13:33:26.556Z,98472.88
2022-08-11T13:36:28.846Z,98469.88
2022-08-11T13:39:31.365Z,98459.75
2022-08-11T13:42:33.287Z,98454.97
2022-08-11T13:45:35.995Z,98455.25
2022-08-11T13:48:37.521Z,98463.47
2022-08-11T13:51:40.088Z,98443.03
2022-08-11T13:54:42.511Z,98458.84
2022-08-11T13:58:08.851Z,98451.56
2022-08-11T14:01:11.339Z,98427.06
2022-08-11T14:04:39.380Z,98438.63
2022-08-11T14:07:50.864Z,98427.38
2022-08-11T14:12:20.317Z,98423.34
2022-08-11T14:14:35.392Z,98413.56
2022-08-11T14:17:47.856Z,98413.78
2022-08-11T14:21:11.523Z,98403.53
2022-08-11T14:24:13.121Z,98399.84
2022-08-11T14:28:30.118Z,98417.50
2022-08-11T14:30:58.922Z,98409.19
2022-08-11T14:34:04.443Z,98416.78
2022-08-11T14:37:08.324Z,98396.50
2022-08-11T14:40:31.849Z,98407.56
2022-08-11T14:44:12.695Z,98409.81
2022-08-11T14:47:24.646Z,98412.13
2022-08-11T14:50:28.652Z,98401.88
2022-08-11T14:53:30.144Z,98396.06
2022-08-11T14:56:37.099Z,98402.47
2022-08-11T14:59:38.572Z,98407.28
2022-08-11T15:02:58.677Z,98397.78
2022-08-11T15:06:02.110Z,98394.66
2022-08-11T15:09:08.714Z,98399.63
2022-08-11T15:12:32.847Z,98385.69
2022-08-11T15:15:53.544Z,98377.47
2022-08-11T15:18:55.672Z,98392.81
2022-08-11T15:22:15.891Z,98386.25
2022-08-11T15:25:17.418Z,98383.13
2022-08-11T15:28:37.310Z,98390.53
2022-08-11T15:31:57.496Z,98389.97
2022-08-11T15:35:19.579Z,98382.28
2022-08-11T15:38:21.227Z,98375.44
2022-08-11T15:41:44.840Z,98376.44
2022-08-11T15:45:15.792Z,98365.97
2022-08-11T15:48:28.357Z,98378.31
2022-08-11T15:51:49.601Z,98364.22
2022-08-11T15:54:51.099Z,98363.88
2022-08-11T15:58:12.315Z,98360.91
2022-08-11T16:01:32.356Z,98367.91
2022-08-11T16:04:33.924Z,98361.06
2022-08-11T16:07:39.121Z,98362.34
2022-08-11T16:10:42.764Z,98367.00
2022-08-11T16:13:46.397Z,98366.56
2022-08-11T16:16:48.583Z,98372.56
2022-08-11T16:19:50.275Z,98354.50
2022-08-11T16:22:57.122Z,98367.09
2022-08-11T16:27:11.670Z,98359.31
2022-08-11T16:29:26.209Z,98360.59
2022-08-11T16:32:27.748Z,98358.13
2022-08-11T16:35:47.776Z,98350.19
2022-08-11T16:38:49.290Z,98354.00
2022-08-11T16:42:09.468Z,98356.50
2022-08-11T16:45:49.584Z,98357.94
2022-08-11T16:48:52.662Z,98346.63
2022-08-11T16:51:54.139Z,98353.19
2022-08-11T16:54:55.615Z,98357.31
2022-08-11T16:58:15.725Z,98361.53
2022-08-11T17:01:18.223Z,98347.44
2022-08-11T17:04:57.843Z,98351.34
2022-08-11T17:08:19.716Z,98351.00
2022-08-11T17:11:45.303Z,98351.66
2022-08-11T17:14:58.529Z,98349.06
2022-08-11T17:18:00.558Z,98361.34
2022-08-11T17:21:02.139Z,98352.91
2022-08-11T17:24:09.086Z,98358.06
2022-08-11T17:27:13.168Z,98370.19
2022-08-11T17:30:14.871Z,98367.75
2022-08-11T17:33:34.953Z,98368.38
2022-08-11T17:36:39.312Z,98365.00
2022-08-11T17:39:43.464Z,98375.19
2022-08-11T17:43:03.674Z,98367.84
2022-08-11T17:46:05.237Z,98371.28
2022-08-11T17:49:11.176Z,98374.22
2022-08-11T17:52:35.281Z,98390.09
2022-08-11T17:55:56.075Z,98388.13
2022-08-11T17:59:18.320Z,98390.34
2022-08-11T18:02:41.315Z,98391.28
2022-08-11T18:05:45.568Z,98408.53
2022-08-11T18:09:05.596Z,98403.13
2022-08-11T18:12:26.091Z,98398.13
2022-08-11T18:15:55.694Z,98403.13
2022-08-11T18:19:16.256Z,98417.69
2022-08-11T18:22:47.911Z,98423.84
2022-08-11T18:26:08.069Z,98419.38
2022-08-11T18:29:28.344Z,98431.56
2022-08-11T18:32:50.082Z,98434.31
2022-08-11T18:36:13.489Z,98426.59
2022-08-11T18:39:33.638Z,98436.59
2022-08-11T18:42:53.507Z,98437.88
2022-08-11T18:46:18.449Z,98439.81
2022-08-11T18:50:02.043Z,98455.38
2022-08-11T18:53:24.372Z,98467.97
2022-08-11T18:56:44.526Z,98475.34
2022-08-11T19:00:04.574Z,98471.66
2022-08-11T19:03:24.592Z,98484.84
2022-08-11T19:06:44.776Z,98493.53
2022-08-11T19:10:04.874Z,98506.19
2022-08-11T19:13:27.191Z,98507.22
2022-08-11T19:16:47.352Z,98507.41
2022-08-11T19:20:07.430Z,98516.75
2022-08-11T19:23:28.337Z,98510.66
2022-08-11T19:26:48.527Z,98526.44
2022-08-11T19:30:13.855Z,98522.94
2022-08-11T19:34:02.395Z,98518.47
2022-08-11T19:37:14.728Z,98529.16
2022-08-11T19:40:34.835Z,98536.91
2022-08-11T19:43:54.944Z,98537.09
2022-08-11T19:47:14.958Z,98543.53
2022-08-11T19:50:35.021Z,98548.31
2022-08-11T19:53:57.935Z,98555.94
2022-08-11T19:57:18.736Z,98562.06
2022-08-11T20:00:39.318Z,98563.19
2022-08-11T20:04:00.703Z,98572.84
2022-08-11T20:07:20.974Z,98564.63
2022-08-11T20:10:40.972Z,98581.97
2022-08-11T20:14:00.949Z,98577.75
2022-08-11T20:17:21.168Z,98582.28
2022-08-11T20:20:42.118Z,98585.44
2022-08-11T20:24:03.108Z,98580.41
2022-08-11T20:27:24.606Z,98583.97
2022-08-11T20:30:45.564Z,98587.16
2022-08-11T20:34:05.691Z,98589.78
2022-08-11T20:37:25.873Z,98594.94
2022-08-11T20:40:45.984Z,98593.13
2022-08-11T20:44:09.190Z,98598.47
2022-08-11T20:47:29.861Z,98595.78
2022-08-11T20:50:50.424Z,98606.94
2022-08-11T20:54:12.452Z,98596.00
2022-08-11T20:57:54.468Z,98595.78
2022-08-11T21:01:20.496Z,98602.41
2022-08-11T21:04:54.288Z,98600.53
2022-08-11T21:08:15.414Z,98602.81
2022-08-11T21:11:36.521Z,98606.47
2022-08-11T21:14:57.388Z,98601.47
2022-08-11T21:18:28.182Z,98606.00
2022-08-11T21:21:49.872Z,98606.94
2022-08-11T21:25:14.945Z,98607.31
2022-08-11T21:28:35.232Z,98609.38
2022-08-11T21:31:56.069Z,98618.91
2022-08-11T21:35:16.123Z,98614.28
2022-08-11T21:38:36.110Z,98628.81
2022-08-11T21:41:56.919Z,98619.41
2022-08-11T21:45:17.078Z,98626.66
2022-08-11T21:48:37.196Z,98623.59
2022-08-11T21:51:57.171Z,98617.44
2022-08-11T21:55:17.248Z,98615.19
2022-08-11T21:58:37.401Z,98618.41
2022-08-11T22:01:57.627Z,98622.53
2022-08-11T22:05:17.886Z,98623.84
2022-08-11T22:08:37.576Z,98611.22
2022-08-11T22:12:30.247Z,98609.16
2022-08-11T22:15:37.722Z,98616.00
2022-08-11T22:18:57.722Z,98612.88
2022-08-11T22:22:17.837Z,98614.34
2022-08-11T22:25:38.719Z,98612.56
2022-08-11T22:28:59.074Z,98613.50
2022-08-11T22:32:19.199Z,98615.06
2022-08-11T22:35:39.195Z,98618.03
2022-08-11T22:38:59.794Z,98611.94
2022-08-11T22:42:20.094Z,98617.56
2022-08-11T22:45:52.426Z,98619.53
2022-08-11T22:49:12.187Z,98617.28
2022-08-11T22:52:32.485Z,98614.31
2022-08-11T22:55:52.550Z,98616.22
2022-08-11T22:59:12.626Z,98624.97
2022-08-11T23:02:34.336Z,98624.84
2022-08-11T23:05:54.534Z,98631.47
2022-08-11T23:09:15.214Z,98627.69
2022-08-11T23:12:35.512Z,98622.69
2022-08-11T23:15:55.655Z,98618.56
2022-08-11T23:20:08.702Z,98629.41
2022-08-11T23:22:56.169Z,98625.69
2022-08-11T23:26:16.430Z,98626.19
2022-08-11T23:29:36.519Z,98621.06
2022-08-11T23:32:56.619Z,98631.38
2022-08-11T23:36:35.983Z,98640.69
2022-08-11T23:39:56.781Z,98639.06
2022-08-11T23:43:16.922Z,98634.56
2022-08-11T23:46:40.255Z,98628.75
2022-08-11T23:50:00.398Z,98625.56
2022-08-11T23:53:21.023Z,98630.75
2022-08-11T23:56:41.034Z,98631.03
